createdAt,value
2022-10-18T00:00:20.473Z,85.52
2022-10-18T00:02:47.406Z,85.12
2022-10-18T00:05:14.398Z,85.00
2022-10-18T00:07:41.242Z,85.03
2022-10-18T00:10:08.947Z,84.54
2022-10-18T00:12:37.849Z,84.84
2022-10-18T00:15:07.039Z,84.61
2022-10-18T00:17:38.869Z,84.65
2022-10-18T00:20:07.047Z,84.91
2022-10-18T00:22:39.100Z,85.55
2022-10-18T00:25:07.650Z,85.81
2022-10-18T00:27:35.092Z,85.77
2022-10-18T00:30:01.903Z,85.12
2022-10-18T00:32:29.060Z,84.99
2022-10-18T00:34:56.177Z,85.32
2022-10-18T00:37:22.925Z,85.57
2022-10-18T00:39:50.296Z,85.92
2022-10-18T00:42:21.733Z,85.24
2022-10-18T00:44:51.543Z,85.00
2022-10-18T00:47:19.848Z,85.41
2022-10-18T00:49:51.768Z,85.29
2022-10-18T00:52:24.211Z,85.55
2022-10-18T00:54:52.586Z,85.98
2022-10-18T00:57:19.590Z,86.05
2022-10-18T00:59:47.181Z,85.64
2022-10-18T01:02:18.511Z,86.29
2022-10-18T01:04:46.536Z,86.67
2022-10-18T01:07:38.030Z,87.08
2022-10-18T01:10:30.666Z,87.23
2022-10-18T01:13:24.863Z,87.30
2022-10-18T01:16:07.645Z,87.07
2022-10-18T01:19:01.209Z,87.08
2022-10-18T01:21:48.605Z,86.73
2022-10-18T01:24:46.360Z,86.66
2022-10-18T01:27:34.866Z,87.10
2022-10-18T01:30:36.843Z,86.92
2022-10-18T01:33:25.081Z,86.74
2022-10-18T01:35:59.351Z,86.90
2022-10-18T01:38:27.505Z,86.88
2022-10-18T01:40:56.439Z,86.62
2022-10-18T01:43:25.035Z,87.24
2022-10-18T01:45:54.862Z,87.57
2022-10-18T01:48:24.151Z,87.76
2022-10-18T01:50:53.196Z,87.68
2022-10-18T01:53:32.826Z,87.42
2022-10-18T01:56:27.448Z,87.58
2022-10-18T01:59:11.950Z,87.22
2022-10-18T02:01:46.903Z,87.25
2022-10-18T02:04:37.705Z,87.35
2022-10-18T02:07:17.203Z,87.23
2022-10-18T02:09:52.756Z,87.17
2022-10-18T02:12:21.819Z,87.47
2022-10-18T02:14:50.641Z,87.29
2022-10-18T02:17:21.282Z,87.04
2022-10-18T02:19:52.535Z,86.99
2022-10-18T02:22:20.807Z,87.48
2022-10-18T02:24:52.250Z,87.18
2022-10-18T02:27:20.109Z,87.81
2022-10-18T02:29:47.957Z,87.99
2022-10-18T02:32:39.974Z,88.07
2022-10-18T02:35:39.237Z,88.33
2022-10-18T02:38:07.886Z,88.76
2022-10-18T02:40:34.894Z,88.31
2022-10-18T02:43:01.747Z,88.40
2022-10-18T02:45:29.029Z,88.96
2022-10-18T02:47:55.871Z,89.19
2022-10-18T02:50:22.778Z,90.00
2022-10-18T02:52:49.611Z,89.88
2022-10-18T02:55:16.823Z,89.72
2022-10-18T02:57:43.833Z,89.79
2022-10-18T03:00:11.255Z,89.44
2022-10-18T03:02:38.102Z,89.16
2022-10-18T03:05:05.214Z,89.59
2022-10-18T03:07:32.172Z,89.64
2022-10-18T03:09:59.131Z,89.64
2022-10-18T03:12:25.889Z,89.80
2022-10-18T03:14:52.733Z,90.24
2022-10-18T03:17:19.586Z,89.94
2022-10-18T03:19:46.385Z,89.55
2022-10-18T03:22:13.207Z,89.68
2022-10-18T03:24:40.045Z,90.04
2022-10-18T03:27:06.978Z,89.91
2022-10-18T03:29:33.716Z,90.36
2022-10-18T03:32:00.495Z,90.44
2022-10-18T03:34:27.292Z,90.99
2022-10-18T03:36:55.110Z,91.04
2022-10-18T03:39:21.917Z,91.20
2022-10-18T03:41:48.798Z,91.07
2022-10-18T03:44:15.554Z,91.06
2022-10-18T03:46:42.355Z,91.22
2022-10-18T03:49:09.119Z,91.76
2022-10-18T03:51:36.001Z,91.98
2022-10-18T03:54:02.900Z,91.80
2022-10-18T03:56:29.729Z,91.22
2022-10-18T03:58:57.303Z,91.26
2022-10-18T04:01:24.206Z,91.47
2022-10-18T04:03:51.052Z,92.07
2022-10-18T04:06:17.822Z,92.79
2022-10-18T04:08:44.622Z,95.01
2022-10-18T04:11:12.260Z,93.13
2022-10-18T04:13:39.323Z,92.75
2022-10-18T04:16:06.324Z,92.59
2022-10-18T04:18:33.179Z,92.54
2022-10-18T04:20:59.979Z,91.96
2022-10-18T04:23:26.763Z,91.70
2022-10-18T04:25:53.557Z,91.98
2022-10-18T04:28:20.370Z,92.14
2022-10-18T04:30:53.879Z,92.10
2022-10-18T04:33:20.745Z,92.11
2022-10-18T04:35:50.911Z,91.87
2022-10-18T04:38:17.725Z,92.19
2022-10-18T04:40:44.536Z,94.28
2022-10-18T04:43:11.364Z,92.91
2022-10-18T04:45:38.302Z,93.66
2022-10-18T04:48:05.304Z,94.52
2022-10-18T04:50:32.212Z,93.17
2022-10-18T04:52:59.215Z,93.50
2022-10-18T04:55:26.143Z,94.10
2022-10-18T04:57:53.774Z,94.07
2022-10-18T05:00:21.020Z,93.66
2022-10-18T05:02:47.825Z,93.94
2022-10-18T05:05:14.770Z,93.18
2022-10-18T05:07:41.841Z,92.34
2022-10-18T05:10:16.473Z,92.65
2022-10-18T05:12:43.992Z,92.24
2022-10-18T05:15:10.926Z,92.29
2022-10-18T05:17:37.760Z,92.12
2022-10-18T05:20:05.107Z,92.56
2022-10-18T05:22:32.317Z,93.08
2022-10-18T05:24:59.295Z,91.92
2022-10-18T05:27:26.144Z,91.26
2022-10-18T05:29:52.981Z,90.67
2022-10-18T05:32:19.930Z,90.28
2022-10-18T05:34:46.740Z,89.17
2022-10-18T05:37:13.973Z,88.01
2022-10-18T05:39:40.871Z,88.19
2022-10-18T05:42:08.865Z,88.39
2022-10-18T05:44:35.742Z,88.98
2022-10-18T05:47:02.563Z,88.74
2022-10-18T05:49:29.394Z,88.26
2022-10-18T05:51:56.299Z,88.42
2022-10-18T05:54:23.197Z,87.40
2022-10-18T05:56:49.972Z,87.26
2022-10-18T05:59:16.777Z,87.30
2022-10-18T06:01:44.091Z,86.78
2022-10-18T06:04:11.109Z,86.38
2022-10-18T06:06:39.265Z,85.88
2022-10-18T06:09:08.200Z,86.64
2022-10-18T06:11:37.052Z,86.47
2022-10-18T06:14:04.504Z,85.24
2022-10-18T06:16:32.546Z,84.53
2022-10-18T06:19:00.241Z,84.33
2022-10-18T06:21:27.557Z,83.91
2022-10-18T06:23:56.970Z,83.72
2022-10-18T06:26:24.606Z,82.96
2022-10-18T06:28:51.620Z,82.52
2022-10-18T06:31:21.413Z,82.06
2022-10-18T06:33:48.675Z,81.02
2022-10-18T06:36:22.414Z,80.59
2022-10-18T06:38:49.908Z,81.29
2022-10-18T06:41:18.185Z,80.05
2022-10-18T06:43:52.058Z,79.21
2022-10-18T06:46:19.919Z,78.46
2022-10-18T06:48:47.233Z,78.47
2022-10-18T06:51:15.380Z,77.71
2022-10-18T06:53:44.341Z,77.34
2022-10-18T06:56:15.570Z,76.25
2022-10-18T06:58:42.366Z,76.30
2022-10-18T07:01:12.891Z,75.74
2022-10-18T07:03:40.205Z,75.42
2022-10-18T07:06:11.409Z,75.03
2022-10-18T07:08:39.495Z,74.44
2022-10-18T07:11:07.807Z,73.86
2022-10-18T07:13:35.307Z,73.00
2022-10-18T07:16:14.096Z,72.56
2022-10-18T07:18:46.809Z,72.51
2022-10-18T07:21:15.222Z,72.16
2022-10-18T07:23:49.479Z,72.42
2022-10-18T07:26:21.401Z,72.14
2022-10-18T07:28:51.625Z,71.79
2022-10-18T07:31:19.010Z,71.75
2022-10-18T07:33:45.935Z,70.95
2022-10-18T07:36:13.924Z,76.00
2022-10-18T07:38:41.415Z,70.56
2022-10-18T07:41:10.490Z,72.00
2022-10-18T07:43:37.439Z,69.92
2022-10-18T07:46:06.137Z,66.07
2022-10-18T07:48:33.303Z,69.98
2022-10-18T07:51:01.894Z,66.95
2022-10-18T07:53:29.879Z,65.96
2022-10-18T07:56:03.529Z,64.80
2022-10-18T07:58:34.687Z,65.12
2022-10-18T08:01:06.411Z,62.88
2022-10-18T08:03:33.741Z,61.02
2022-10-18T08:06:00.719Z,61.66
2022-10-18T08:08:28.536Z,58.98
2022-10-18T08:10:55.612Z,57.34
2022-10-18T08:13:22.562Z,55.71
2022-10-18T08:15:49.388Z,54.53
2022-10-18T08:18:16.277Z,54.31
2022-10-18T08:20:46.683Z,51.99
2022-10-18T08:23:13.470Z,50.93
2022-10-18T08:25:42.157Z,51.72
2022-10-18T08:28:09.116Z,52.73
2022-10-18T08:30:36.491Z,48.93
2022-10-18T08:33:04.233Z,52.57
2022-10-18T08:35:32.108Z,47.40
2022-10-18T08:37:59.517Z,47.98
2022-10-18T08:40:27.909Z,46.82
2022-10-18T08:43:07.275Z,46.16
2022-10-18T08:45:42.345Z,45.58
2022-10-18T08:48:21.981Z,46.20
2022-10-18T08:50:50.458Z,44.61
2022-10-18T08:53:39.285Z,44.16
2022-10-18T08:56:21.683Z,43.98
2022-10-18T08:58:48.835Z,45.63
2022-10-18T09:01:27.818Z,43.92
2022-10-18T09:04:15.492Z,43.78
2022-10-18T09:06:52.575Z,43.44
2022-10-18T09:09:41.139Z,42.58
2022-10-18T09:12:13.888Z,42.39
2022-10-18T09:14:49.819Z,42.74
2022-10-18T09:17:44.107Z,41.45
2022-10-18T09:20:24.929Z,41.33
2022-10-18T09:23:38.236Z,41.33
2022-10-18T09:26:16.226Z,42.78
2022-10-18T09:29:07.650Z,41.81
2022-10-18T09:31:50.310Z,40.84
2022-10-18T09:34:38.168Z,42.34
2022-10-18T09:37:05.382Z,41.49
2022-10-18T09:39:38.032Z,39.46
2022-10-18T09:42:26.691Z,39.89
2022-10-18T09:45:03.936Z,38.86
2022-10-18T09:47:41.581Z,38.32
2022-10-18T09:50:25.940Z,38.34
2022-10-18T09:53:26.584Z,39.42
2022-10-18T09:56:02.175Z,38.36
2022-10-18T09:58:44.736Z,37.94
2022-10-18T10:01:15.960Z,36.48
2022-10-18T10:03:43.110Z,35.80
2022-10-18T10:06:31.476Z,35.03
2022-10-18T10:09:14.810Z,34.96
2022-10-18T10:11:46.012Z,35.28
2022-10-18T10:17:07.449Z,34.37
2022-10-18T10:19:56.930Z,34.14
2022-10-18T10:22:39.100Z,35.89
2022-10-18T10:25:07.780Z,34.15
2022-10-18T10:27:44.177Z,35.63
2022-10-18T10:30:38.618Z,33.87
2022-10-18T10:33:06.643Z,34.22
2022-10-18T10:35:53.020Z,32.89
2022-10-18T10:38:29.460Z,32.91
2022-10-18T10:40:57.246Z,32.73
2022-10-18T10:43:40.012Z,33.03
2022-10-18T10:46:10.679Z,33.81
2022-10-18T10:49:03.272Z,32.40
2022-10-18T10:51:40.905Z,33.18
2022-10-18T10:54:18.677Z,33.27
2022-10-18T10:56:54.684Z,31.97
2022-10-18T10:59:24.209Z,31.18
2022-10-18T11:02:20.777Z,30.33
2022-10-18T11:04:52.293Z,29.93
2022-10-18T11:07:36.710Z,29.82
2022-10-18T11:10:30.992Z,30.06
2022-10-18T11:13:27.106Z,30.38
2022-10-18T11:16:00.583Z,28.24
2022-10-18T11:18:34.112Z,27.84
2022-10-18T11:21:08.813Z,28.46
2022-10-18T11:23:38.558Z,28.45
2022-10-18T11:26:11.403Z,29.16
2022-10-18T11:29:16.904Z,28.83
2022-10-18T11:31:51.058Z,27.69
2022-10-18T11:34:43.524Z,26.42
2022-10-18T11:37:28.641Z,25.69
2022-10-18T11:40:29.376Z,25.42
2022-10-18T11:43:38.906Z,24.34
2022-10-18T11:46:11.929Z,24.07
2022-10-18T11:48:58.180Z,23.73
2022-10-18T11:51:56.073Z,23.82
2022-10-18T11:54:34.483Z,23.09
2022-10-18T11:57:42.832Z,23.44
2022-10-18T12:00:21.388Z,22.19
2022-10-18T12:02:54.434Z,21.97
2022-10-18T12:05:23.947Z,22.57
2022-10-18T12:08:18.601Z,21.83
2022-10-18T12:11:06.700Z,21.88
2022-10-18T12:13:47.937Z,21.24
2022-10-18T12:16:16.923Z,20.99
2022-10-18T12:18:56.631Z,20.13
2022-10-18T12:21:26.719Z,20.02
2022-10-18T12:23:56.521Z,20.01
2022-10-18T12:26:26.153Z,19.73
2022-10-18T12:29:35.162Z,19.80
2022-10-18T12:32:06.040Z,19.16
2022-10-18T12:34:39.001Z,19.21
2022-10-18T12:37:17.681Z,18.98
2022-10-18T12:40:05.432Z,18.28
2022-10-18T12:42:41.763Z,19.06
2022-10-18T12:45:33.457Z,18.18
2022-10-18T12:48:06.973Z,18.61
2022-10-18T12:50:38.405Z,18.03
2022-10-18T12:53:23.102Z,17.36
2022-10-18T12:55:52.041Z,18.06
2022-10-18T12:58:29.588Z,17.00
2022-10-18T13:00:58.403Z,17.93
2022-10-18T13:03:25.048Z,17.52
2022-10-18T13:06:02.907Z,17.86
2022-10-18T13:08:38.470Z,17.09
2022-10-18T13:11:08.184Z,17.50
2022-10-18T13:13:56.819Z,16.39
2022-10-18T13:16:23.613Z,17.51
2022-10-18T13:19:10.198Z,17.09
2022-10-18T13:21:54.965Z,16.99
2022-10-18T13:24:35.683Z,16.81
2022-10-18T13:27:35.600Z,16.23
2022-10-18T13:30:03.328Z,16.45
2022-10-18T13:32:58.801Z,16.20
2022-10-18T13:35:46.338Z,16.44
2022-10-18T13:38:39.040Z,16.95
2022-10-18T13:41:09.339Z,16.33
2022-10-18T13:44:14.560Z,16.90
2022-10-18T13:46:47.960Z,17.02
2022-10-18T13:49:17.672Z,16.31
2022-10-18T13:51:53.647Z,16.66
2022-10-18T13:54:38.753Z,17.52
2022-10-18T13:57:23.905Z,17.49
2022-10-18T14:00:02.983Z,16.50
2022-10-18T14:03:27.134Z,15.75
2022-10-18T14:06:15.535Z,16.26
2022-10-18T14:08:44.781Z,16.26
2022-10-18T14:11:36.300Z,16.16
2022-10-18T14:14:30.120Z,16.48
2022-10-18T14:17:06.945Z,16.45
2022-10-18T14:19:56.789Z,16.52
2022-10-18T14:22:37.131Z,16.69
2022-10-18T14:25:04.325Z,17.09
2022-10-18T14:27:33.105Z,16.11
2022-10-18T14:30:20.777Z,16.02
2022-10-18T14:32:50.627Z,16.17
2022-10-18T14:35:39.169Z,16.39
2022-10-18T14:38:06.867Z,16.47
2022-10-18T14:40:39.204Z,16.40
2022-10-18T14:43:12.365Z,16.94
2022-10-18T14:45:41.054Z,16.13
2022-10-18T14:48:18.163Z,16.19
2022-10-18T14:50:49.610Z,16.38
2022-10-18T14:53:22.413Z,17.12
2022-10-18T14:56:01.392Z,17.44
2022-10-18T14:58:29.298Z,17.83
2022-10-18T15:00:58.931Z,18.13
2022-10-18T15:03:28.796Z,18.49
2022-10-18T15:06:00.361Z,18.82
2022-10-18T15:08:37.482Z,19.00
2022-10-18T15:11:06.112Z,19.58
2022-10-18T15:13:44.945Z,19.77
2022-10-18T15:16:21.330Z,21.16
2022-10-18T15:19:12.568Z,22.30
2022-10-18T15:22:30.919Z,22.96
2022-10-18T15:25:15.122Z,23.65
2022-10-18T15:27:48.214Z,24.62
2022-10-18T15:30:28.534Z,24.38
2022-10-18T15:33:02.266Z,25.35
2022-10-18T15:35:35.539Z,25.13
2022-10-18T15:38:27.667Z,26.13
2022-10-18T15:40:55.127Z,25.45
2022-10-18T15:43:24.807Z,25.63
2022-10-18T15:46:01.716Z,25.98
2022-10-18T15:48:40.658Z,26.71
2022-10-18T15:51:12.958Z,27.42
2022-10-18T15:53:51.496Z,27.75
2022-10-18T15:56:32.272Z,28.32
2022-10-18T15:59:20.788Z,28.57
2022-10-18T16:01:47.814Z,29.21
2022-10-18T16:04:23.262Z,29.37
2022-10-18T16:06:50.217Z,30.09
2022-10-18T16:09:19.529Z,30.81
2022-10-18T16:11:47.387Z,31.07
2022-10-18T16:14:14.305Z,31.79
2022-10-18T16:16:41.511Z,31.79
2022-10-18T16:19:10.343Z,33.01
2022-10-18T16:21:39.422Z,32.51
2022-10-18T16:24:06.688Z,32.96
2022-10-18T16:26:35.034Z,33.75
2022-10-18T16:29:02.056Z,34.33
2022-10-18T16:31:33.045Z,34.79
2022-10-18T16:34:00.836Z,35.33
2022-10-18T16:36:32.806Z,36.28
2022-10-18T16:39:04.703Z,35.93
2022-10-18T16:41:31.502Z,36.27
2022-10-18T16:43:58.386Z,36.69
2022-10-18T16:46:29.665Z,36.99
2022-10-18T16:48:57.359Z,37.02
2022-10-18T16:51:24.740Z,37.31
2022-10-18T16:53:53.603Z,38.31
2022-10-18T16:56:26.279Z,39.05
2022-10-18T16:58:53.197Z,39.88
2022-10-18T17:01:22.631Z,40.35
2022-10-18T17:03:52.275Z,40.66
2022-10-18T17:06:28.318Z,41.26
2022-10-18T17:08:56.871Z,41.31
2022-10-18T17:11:26.251Z,41.67
2022-10-18T17:13:53.294Z,41.48
2022-10-18T17:16:32.137Z,41.95
2022-10-18T17:19:01.609Z,42.31
2022-10-18T17:21:29.685Z,42.67
2022-10-18T17:24:00.654Z,42.83
2022-10-18T17:26:29.628Z,42.71
2022-10-18T17:29:03.986Z,43.96
2022-10-18T17:31:31.692Z,44.11
2022-10-18T17:34:01.793Z,44.97
2022-10-18T17:36:30.993Z,45.50
2022-10-18T17:38:58.390Z,46.21
2022-10-18T17:41:25.438Z,47.17
2022-10-18T17:43:52.305Z,46.85
2022-10-18T17:46:19.781Z,48.25
2022-10-18T17:48:47.147Z,48.46
2022-10-18T17:51:16.598Z,49.30
2022-10-18T17:53:43.942Z,49.72
2022-10-18T17:56:12.241Z,50.09
2022-10-18T17:58:39.317Z,50.62
2022-10-18T18:01:15.561Z,51.10
2022-10-18T18:03:42.941Z,52.13
2022-10-18T18:06:17.032Z,52.28
2022-10-18T18:08:44.896Z,52.63
2022-10-18T18:11:12.183Z,53.36
2022-10-18T18:13:39.297Z,53.52
2022-10-18T18:16:17.955Z,53.56
2022-10-18T18:18:47.144Z,53.87
2022-10-18T18:21:14.236Z,53.42
2022-10-18T18:23:41.632Z,54.14
2022-10-18T18:26:08.938Z,54.98
2022-10-18T18:28:36.602Z,54.81
2022-10-18T18:31:14.777Z,54.35
2022-10-18T18:33:42.365Z,55.09
2022-10-18T18:36:12.079Z,54.77
2022-10-18T18:38:42.947Z,55.27
2022-10-18T18:41:13.027Z,56.08
2022-10-18T18:43:42.488Z,56.38
2022-10-18T18:46:10.593Z,56.64
2022-10-18T18:48:37.889Z,57.37
2022-10-18T18:51:06.164Z,58.27
2022-10-18T18:53:33.055Z,58.95
2022-10-18T18:56:05.830Z,59.75
2022-10-18T18:58:34.884Z,60.51
2022-10-18T19:01:11.204Z,60.74
2022-10-18T19:03:40.974Z,60.75
2022-10-18T19:06:11.101Z,61.69
2022-10-18T19:08:40.064Z,61.36
2022-10-18T19:11:09.337Z,62.51
2022-10-18T19:13:36.721Z,63.01
2022-10-18T19:16:26.848Z,63.63
2022-10-18T19:18:55.322Z,63.69
2022-10-18T19:21:24.218Z,64.00
2022-10-18T19:23:51.574Z,64.58
2022-10-18T19:26:25.872Z,65.53
2022-10-18T19:28:52.857Z,65.18
2022-10-18T19:31:20.197Z,65.93
2022-10-18T19:33:58.962Z,65.73
2022-10-18T19:36:26.924Z,66.19
2022-10-18T19:38:53.819Z,66.61
2022-10-18T19:41:21.614Z,66.74
2022-10-18T19:43:48.577Z,67.57
2022-10-18T19:46:15.510Z,67.34
2022-10-18T19:48:42.698Z,68.34
2022-10-18T19:51:17.381Z,66.95
2022-10-18T19:53:48.225Z,67.43
2022-10-18T19:56:21.053Z,66.87
2022-10-18T19:58:48.356Z,66.88
2022-10-18T20:01:16.454Z,67.32
2022-10-18T20:03:44.594Z,66.64
2022-10-18T20:06:11.647Z,66.18
2022-10-18T20:08:39.483Z,65.79
2022-10-18T20:11:10.281Z,65.63
2022-10-18T20:13:38.083Z,67.30
2022-10-18T20:16:07.425Z,66.01
2022-10-18T20:18:34.761Z,65.41
2022-10-18T20:21:05.839Z,64.85
2022-10-18T20:23:34.785Z,65.34
2022-10-18T20:26:04.756Z,65.83
2022-10-18T20:28:32.226Z,65.71
2022-10-18T20:31:11.375Z,66.25
2022-10-18T20:33:38.852Z,67.68
2022-10-18T20:36:17.617Z,68.01
2022-10-18T20:38:46.475Z,68.86
2022-10-18T20:41:24.865Z,69.66
2022-10-18T20:43:53.496Z,69.77
2022-10-18T20:46:21.297Z,70.34
2022-10-18T20:48:50.009Z,70.39
2022-10-18T20:51:19.759Z,69.75
2022-10-18T20:53:47.047Z,69.99
2022-10-18T20:56:20.540Z,70.56
2022-10-18T20:58:50.058Z,71.42
2022-10-18T21:01:18.468Z,71.18
2022-10-18T21:03:47.031Z,70.89
2022-10-18T21:06:18.400Z,71.87
2022-10-18T21:08:46.123Z,72.69
2022-10-18T21:11:14.451Z,72.43
2022-10-18T21:13:41.449Z,73.48
2022-10-18T21:16:08.720Z,73.97
2022-10-18T21:18:37.151Z,74.04
2022-10-18T21:21:16.242Z,74.74
2022-10-18T21:23:44.028Z,74.20
2022-10-18T21:26:16.021Z,74.47
2022-10-18T21:28:44.248Z,74.25
2022-10-18T21:31:22.986Z,74.79
2022-10-18T21:33:54.492Z,75.36
2022-10-18T21:36:22.192Z,75.49
2022-10-18T21:38:50.269Z,74.73
2022-10-18T21:41:18.723Z,75.88
2022-10-18T21:43:53.460Z,75.18
2022-10-18T21:46:22.504Z,75.06
2022-10-18T21:48:53.716Z,75.09
2022-10-18T21:51:22.695Z,75.01
2022-10-18T21:53:51.933Z,75.14
2022-10-18T21:56:21.847Z,74.60
2022-10-18T21:58:49.153Z,75.28
2022-10-18T22:01:28.109Z,75.46
2022-10-18T22:03:57.013Z,75.28
2022-10-18T22:06:24.977Z,74.88
2022-10-18T22:08:54.840Z,75.33
2022-10-18T22:11:25.138Z,74.41
2022-10-18T22:13:53.093Z,74.31
2022-10-18T22:16:20.095Z,75.01
2022-10-18T22:18:48.700Z,74.86
2022-10-18T22:21:17.197Z,75.59
2022-10-18T22:23:49.504Z,76.35
2022-10-18T22:26:22.514Z,76.01
2022-10-18T22:28:59.107Z,76.81
2022-10-18T22:31:30.118Z,77.00
2022-10-18T22:33:59.260Z,77.57
2022-10-18T22:36:26.309Z,77.98
2022-10-18T22:38:53.843Z,78.11
2022-10-18T22:41:22.250Z,78.37
2022-10-18T22:43:52.563Z,78.86
2022-10-18T22:46:19.918Z,79.18
2022-10-18T22:48:47.349Z,79.11
2022-10-18T22:51:15.757Z,79.13
2022-10-18T22:53:42.631Z,77.83
2022-10-18T22:56:12.832Z,78.52
2022-10-18T22:58:39.688Z,77.92
2022-10-18T23:01:11.718Z,77.43
2022-10-18T23:03:39.266Z,77.48
2022-10-18T23:06:17.329Z,77.56
2022-10-18T23:08:44.180Z,77.69
2022-10-18T23:11:11.037Z,78.32
2022-10-18T23:13:39.586Z,78.47
2022-10-18T23:16:06.894Z,78.94
2022-10-18T23:18:34.055Z,78.95
2022-10-18T23:21:03.291Z,79.26
2022-10-18T23:23:34.848Z,79.23
2022-10-18T23:26:07.356Z,79.68
2022-10-18T23:28:38.453Z,79.92
2022-10-18T23:31:08.006Z,79.97
2022-10-18T23:33:35.025Z,80.55
2022-10-18T23:36:02.310Z,80.22
2022-10-18T23:38:30.992Z,80.33
2022-10-18T23:40:58.347Z,80.20
2022-10-18T23:43:25.544Z,80.35
2022-10-18T23:45:52.381Z,80.18
2022-10-18T23:48:19.370Z,80.98
2022-10-18T23:50:46.314Z,80.83
2022-10-18T23:53:13.212Z,80.15
2022-10-18T23:55:39.988Z,80.62
2022-10-18T23:58:06.891Z,80.32
